sensor_id;sensor_type;location;lat;lon;timestamp;pressure;altitude;pressure_sealevel;temperature;humidity
71457;BME280;59263;48.160;11.752;2023-05-19T00:01:26;96327.66;;;9.61;100.00
71457;BME280;59263;48.160;11.752;2023-05-19T00:03:54;96340.78;;;9.69;100.00
71457;BME280;59263;48.160;11.752;2023-05-19T00:06:26;96336.91;;;9.63;100.00
71457;BME280;59263;48.160;11.752;2023-05-19T00:09:00;96337.47;;;9.67;100.00
71457;BME280;59263;48.160;11.752;2023-05-19T00:11:26;96316.44;;;9.51;100.00
71457;BME280;59263;48.160;11.752;2023-05-19T00:13:53;96314.03;;;9.59;100.00
71457;BME280;59263;48.160;11.752;2023-05-19T00:16:20;96323.88;;;9.65;100.00
71457;BME280;59263;48.160;11.752;2023-05-19T00:18:46;96318.97;;;9.62;100.00
71457;BME280;59263;48.160;11.752;2023-05-19T00:21:12;96319.63;;;9.64;100.00
71457;BME280;59263;48.160;11.752;2023-05-19T00:23:37;96333.97;;;9.68;100.00
71457;BME280;59263;48.160;11.752;2023-05-19T00:26:03;96321.97;;;9.67;100.00
71457;BME280;59263;48.160;11.752;2023-05-19T00:28:28;96318.72;;;9.65;100.00
71457;BME280;59263;48.160;11.752;2023-05-19T00:30:53;96315.44;;;9.63;100.00
71457;BME280;59263;48.160;11.752;2023-05-19T00:33:19;96318.72;;;9.65;100.00
71457;BME280;59263;48.160;11.752;2023-05-19T00:35:44;96314.47;;;9.64;100.00
71457;BME280;59263;48.160;11.752;2023-05-19T00:38:09;96303.31;;;9.63;100.00
71457;BME280;59263;48.160;11.752;2023-05-19T00:40:35;96289.53;;;9.53;100.00
71457;BME280;59263;48.160;11.752;2023-05-19T00:43:00;96301.81;;;9.61;100.00
71457;BME280;59263;48.160;11.752;2023-05-19T00:45:26;96303.22;;;9.65;100.00
71457;BME280;59263;48.160;11.752;2023-05-19T00:47:51;96301.56;;;9.64;100.00
71457;BME280;59263;48.160;11.752;2023-05-19T00:50:17;96295.72;;;9.62;100.00
71457;BME280;59263;48.160;11.752;2023-05-19T00:52:42;96291.22;;;9.64;100.00
71457;BME280;59263;48.160;11.752;2023-05-19T00:55:08;96252.84;;;9.38;100.00
71457;BME280;59263;48.160;11.752;2023-05-19T00:57:34;96299.69;;;9.66;100.00
71457;BME280;59263;48.160;11.752;2023-05-19T01:00:00;96285.88;;;9.56;100.00
71457;BME280;59263;48.160;11.752;2023-05-19T01:02:26;96291.75;;;9.58;100.00
71457;BME280;59263;48.160;11.752;2023-05-19T01:04:55;96287.38;;;9.58;100.00
71457;BME280;59263;48.160;11.752;2023-05-19T01:07:21;96290.94;;;9.57;100.00
71457;BME280;59263;48.160;11.752;2023-05-19T01:09:47;96293.63;;;9.56;100.00
71457;BME280;59263;48.160;11.752;2023-05-19T01:12:14;96277.53;;;9.52;100.00
71457;BME280;59263;48.160;11.752;2023-05-19T01:14:39;96265.50;;;9.41;100.00
71457;BME280;59263;48.160;11.752;2023-05-19T01:19:56;96294.31;;;9.58;100.00
71457;BME280;59263;48.160;11.752;2023-05-19T01:28:25;96295.28;;;9.57;100.00
71457;BME280;59263;48.160;11.752;2023-05-19T01:30:57;96291.16;;;9.54;100.00
71457;BME280;59263;48.160;11.752;2023-05-19T01:33:24;96289.44;;;9.43;100.00
71457;BME280;59263;48.160;11.752;2023-05-19T01:35:52;96300.84;;;9.41;100.00
71457;BME280;59263;48.160;11.752;2023-05-19T01:38:19;96288.31;;;9.36;100.00
71457;BME280;59263;48.160;11.752;2023-05-19T01:40:46;96303.19;;;9.44;100.00
71457;BME280;59263;48.160;11.752;2023-05-19T01:43:14;96301.41;;;9.44;100.00
71457;BME280;59263;48.160;11.752;2023-05-19T01:45:40;96292.41;;;9.39;100.00
71457;BME280;59263;48.160;11.752;2023-05-19T01:48:06;96277.81;;;9.17;100.00
71457;BME280;59263;48.160;11.752;2023-05-19T01:50:32;96307.09;;;9.38;100.00
71457;BME280;59263;48.160;11.752;2023-05-19T01:52:58;96288.34;;;9.25;100.00
71457;BME280;59263;48.160;11.752;2023-05-19T01:55:24;96287.63;;;9.23;100.00
71457;BME280;59263;48.160;11.752;2023-05-19T01:58:09;96302.66;;;9.29;100.00
71457;BME280;59263;48.160;11.752;2023-05-19T02:00:53;96299.63;;;9.24;100.00
71457;BME280;59263;48.160;11.752;2023-05-19T02:03:41;96311.81;;;9.22;100.00
71457;BME280;59263;48.160;11.752;2023-05-19T02:06:31;96293.41;;;9.15;100.00
71457;BME280;59263;48.160;11.752;2023-05-19T02:09:11;96291.09;;;9.12;100.00
71457;BME280;59263;48.160;11.752;2023-05-19T02:11:52;96288.16;;;9.17;100.00
71457;BME280;59263;48.160;11.752;2023-05-19T02:14:23;96303.41;;;9.20;100.00
71457;BME280;59263;48.160;11.752;2023-05-19T02:16:49;96302.56;;;9.19;100.00
71457;BME280;59263;48.160;11.752;2023-05-19T02:19:28;96304.78;;;9.24;100.00
71457;BME280;59263;48.160;11.752;2023-05-19T02:21:53;96300.81;;;9.20;100.00
71457;BME280;59263;48.160;11.752;2023-05-19T02:24:19;96303.41;;;9.20;100.00
71457;BME280;59263;48.160;11.752;2023-05-19T02:26:46;96270.59;;;9.00;100.00
71457;BME280;59263;48.160;11.752;2023-05-19T02:29:12;96282.66;;;9.10;100.00
71457;BME280;59263;48.160;11.752;2023-05-19T02:31:37;96289.44;;;9.11;100.00
71457;BME280;59263;48.160;11.752;2023-05-19T02:34:03;96265.44;;;9.00;100.00
71457;BME280;59263;48.160;11.752;2023-05-19T02:36:32;96272.94;;;9.03;100.00
71457;BME280;59263;48.160;11.752;2023-05-19T02:38:59;96286.06;;;9.11;100.00
71457;BME280;59263;48.160;11.752;2023-05-19T02:41:26;96264.38;;;9.02;100.00
71457;BME280;59263;48.160;11.752;2023-05-19T02:43:51;96270.22;;;9.04;100.00
71457;BME280;59263;48.160;11.752;2023-05-19T02:46:17;96275.63;;;9.12;100.00
71457;BME280;59263;48.160;11.752;2023-05-19T02:48:42;96257.00;;;8.98;100.00
71457;BME280;59263;48.160;11.752;2023-05-19T02:51:07;96274.34;;;9.07;100.00
71457;BME280;59263;48.160;11.752;2023-05-19T02:53:32;96273.13;;;9.11;100.00
71457;BME280;59263;48.160;11.752;2023-05-19T02:55:58;96249.75;;;8.91;100.00
71457;BME280;59263;48.160;11.752;2023-05-19T02:58:23;96268.72;;;9.02;100.00
71457;BME280;59263;48.160;11.752;2023-05-19T03:00:48;96275.28;;;9.06;100.00
71457;BME280;59263;48.160;11.752;2023-05-19T03:03:15;96258.66;;;8.99;100.00
71457;BME280;59263;48.160;11.752;2023-05-19T03:05:41;96267.41;;;9.07;100.00
71457;BME280;59263;48.160;11.752;2023-05-19T03:08:06;96252.78;;;8.96;100.00
71457;BME280;59263;48.160;11.752;2023-05-19T03:10:31;96259.09;;;9.04;100.00
71457;BME280;59263;48.160;11.752;2023-05-19T03:12:57;96266.97;;;9.02;100.00
71457;BME280;59263;48.160;11.752;2023-05-19T03:15:22;96275.16;;;9.07;100.00
71457;BME280;59263;48.160;11.752;2023-05-19T03:17:47;96261.09;;;9.00;100.00
71457;BME280;59263;48.160;11.752;2023-05-19T03:20:13;96266.25;;;9.00;100.00
71457;BME280;59263;48.160;11.752;2023-05-19T03:22:40;96249.03;;;8.89;100.00
71457;BME280;59263;48.160;11.752;2023-05-19T03:25:05;96281.38;;;9.05;100.00
71457;BME280;59263;48.160;11.752;2023-05-19T03:27:31;96280.44;;;9.06;100.00
71457;BME280;59263;48.160;11.752;2023-05-19T03:29:56;96275.97;;;9.08;100.00
71457;BME280;59263;48.160;11.752;2023-05-19T03:32:21;96266.81;;;9.04;100.00
71457;BME280;59263;48.160;11.752;2023-05-19T03:34:47;96277.50;;;9.10;100.00
71457;BME280;59263;48.160;11.752;2023-05-19T03:37:12;96267.97;;;9.11;100.00
71457;BME280;59263;48.160;11.752;2023-05-19T03:39:37;96265.53;;;9.09;100.00
71457;BME280;59263;48.160;11.752;2023-05-19T03:42:03;96245.03;;;8.96;100.00
71457;BME280;59263;48.160;11.752;2023-05-19T03:44:28;96255.09;;;9.00;100.00
71457;BME280;59263;48.160;11.752;2023-05-19T03:46:54;96260.03;;;9.03;100.00
71457;BME280;59263;48.160;11.752;2023-05-19T03:49:19;96257.44;;;9.03;100.00
71457;BME280;59263;48.160;11.752;2023-05-19T03:51:44;96269.88;;;9.09;100.00
71457;BME280;59263;48.160;11.752;2023-05-19T03:54:10;96245.97;;;8.95;100.00
71457;BME280;59263;48.160;11.752;2023-05-19T03:56:38;96265.63;;;9.08;100.00
71457;BME280;59263;48.160;11.752;2023-05-19T03:59:03;96243.41;;;8.95;100.00
71457;BME280;59263;48.160;11.752;2023-05-19T04:01:31;96274.78;;;9.12;100.00
71457;BME280;59263;48.160;11.752;2023-05-19T04:03:56;96261.91;;;9.01;100.00
71457;BME280;59263;48.160;11.752;2023-05-19T04:06:22;96268.59;;;9.03;100.00
71457;BME280;59263;48.160;11.752;2023-05-19T04:08:47;96261.66;;;9.04;100.00
71457;BME280;59263;48.160;11.752;2023-05-19T04:11:13;96260.94;;;9.13;100.00
71457;BME280;59263;48.160;11.752;2023-05-19T04:13:38;96249.47;;;9.06;100.00
71457;BME280;59263;48.160;11.752;2023-05-19T04:16:04;96264.63;;;8.99;100.00
71457;BME280;59263;48.160;11.752;2023-05-19T04:18:29;96272.19;;;9.12;100.00
71457;BME280;59263;48.160;11.752;2023-05-19T04:20:55;96269.03;;;9.08;100.00
71457;BME280;59263;48.160;11.752;2023-05-19T04:23:20;96240.09;;;8.93;100.00
71457;BME280;59263;48.160;11.752;2023-05-19T04:25:46;96264.44;;;9.12;100.00
71457;BME280;59263;48.160;11.752;2023-05-19T04:28:14;96208.97;;;8.74;100.00
71457;BME280;59263;48.160;11.752;2023-05-19T04:30:40;96257.06;;;9.07;100.00
71457;BME280;59263;48.160;11.752;2023-05-19T04:33:07;96262.72;;;9.12;100.00
71457;BME280;59263;48.160;11.752;2023-05-19T04:35:33;96268.66;;;9.24;100.00
71457;BME280;59263;48.160;11.752;2023-05-19T04:37:58;96267.25;;;9.20;100.00
71457;BME280;59263;48.160;11.752;2023-05-19T04:40:26;96261.19;;;9.10;100.00
71457;BME280;59263;48.160;11.752;2023-05-19T04:42:51;96260.69;;;9.16;100.00
71457;BME280;59263;48.160;11.752;2023-05-19T04:45:17;96270.28;;;9.25;100.00
71457;BME280;59263;48.160;11.752;2023-05-19T04:47:43;96274.50;;;9.26;100.00
71457;BME280;59263;48.160;11.752;2023-05-19T04:50:10;96275.19;;;9.28;100.00
71457;BME280;59263;48.160;11.752;2023-05-19T04:52:36;96259.38;;;9.21;100.00
71457;BME280;59263;48.160;11.752;2023-05-19T04:55:02;96271.00;;;9.27;100.00
71457;BME280;59263;48.160;11.752;2023-05-19T04:57:28;96275.19;;;9.28;100.00
71457;BME280;59263;48.160;11.752;2023-05-19T04:59:53;96268.84;;;9.32;100.00
71457;BME280;59263;48.160;11.752;2023-05-19T05:02:24;96260.59;;;9.38;100.00
71457;BME280;59263;48.160;11.752;2023-05-19T05:04:49;96256.59;;;9.45;100.00
71457;BME280;59263;48.160;11.752;2023-05-19T05:07:14;96241.56;;;9.39;100.00
71457;BME280;59263;48.160;11.752;2023-05-19T05:09:41;96252.41;;;9.54;100.00
71457;BME280;59263;48.160;11.752;2023-05-19T05:12:07;96247.63;;;9.50;100.00
71457;BME280;59263;48.160;11.752;2023-05-19T05:14:33;96247.81;;;9.58;100.00
71457;BME280;59263;48.160;11.752;2023-05-19T05:16:59;96242.50;;;9.59;100.00
71457;BME280;59263;48.160;11.752;2023-05-19T05:19:25;96225.94;;;9.62;100.00
71457;BME280;59263;48.160;11.752;2023-05-19T05:21:51;96199.16;;;9.63;100.00
71457;BME280;59263;48.160;11.752;2023-05-19T05:24:16;96240.03;;;10.00;100.00
71457;BME280;59263;48.160;11.752;2023-05-19T05:26:42;96242.78;;;10.08;100.00
71457;BME280;59263;48.160;11.752;2023-05-19T05:29:08;96236.22;;;10.04;100.00
71457;BME280;59263;48.160;11.752;2023-05-19T05:31:33;96220.94;;;9.91;100.00
71457;BME280;59263;48.160;11.752;2023-05-19T05:33:59;96225.38;;;10.10;100.00
71457;BME280;59263;48.160;11.752;2023-05-19T05:36:24;96203.88;;;10.09;100.00
71457;BME280;59263;48.160;11.752;2023-05-19T05:38:50;96220.59;;;10.36;100.00
71457;BME280;59263;48.160;11.752;2023-05-19T05:41:15;96232.34;;;10.50;100.00
71457;BME280;59263;48.160;11.752;2023-05-19T05:43:41;96210.00;;;10.49;100.00
71457;BME280;59263;48.160;11.752;2023-05-19T05:46:06;96222.34;;;10.76;100.00
71457;BME280;59263;48.160;11.752;2023-05-19T05:48:31;96228.47;;;10.84;100.00
71457;BME280;59263;48.160;11.752;2023-05-19T05:50:58;96212.66;;;10.78;100.00
71457;BME280;59263;48.160;11.752;2023-05-19T05:53:24;96232.69;;;10.85;100.00
71457;BME280;59263;48.160;11.752;2023-05-19T05:55:50;96238.69;;;10.96;100.00
71457;BME280;59263;48.160;11.752;2023-05-19T05:58:16;96227.66;;;10.94;100.00
71457;BME280;59263;48.160;11.752;2023-05-19T06:00:42;96224.66;;;11.08;100.00
71457;BME280;59263;48.160;11.752;2023-05-19T06:03:08;96224.94;;;11.24;100.00
71457;BME280;59263;48.160;11.752;2023-05-19T06:05:34;96215.25;;;11.26;100.00
71457;BME280;59263;48.160;11.752;2023-05-19T06:07:59;96213.31;;;11.48;100.00
71457;BME280;59263;48.160;11.752;2023-05-19T06:10:25;96201.34;;;11.37;100.00
71457;BME280;59263;48.160;11.752;2023-05-19T06:12:50;96224.47;;;11.68;100.00
71457;BME280;59263;48.160;11.752;2023-05-19T06:15:15;96194.75;;;11.62;100.00
71457;BME280;59263;48.160;11.752;2023-05-19T06:17:41;96202.47;;;11.81;100.00
71457;BME280;59263;48.160;11.752;2023-05-19T06:20:07;96214.88;;;11.97;100.00
71457;BME280;59263;48.160;11.752;2023-05-19T06:22:35;96211.88;;;11.92;100.00
71457;BME280;59263;48.160;11.752;2023-05-19T06:25:01;96212.97;;;11.90;100.00
71457;BME280;59263;48.160;11.752;2023-05-19T06:27:26;96209.28;;;11.82;100.00
71457;BME280;59263;48.160;11.752;2023-05-19T06:29:52;96216.53;;;11.89;100.00
71457;BME280;59263;48.160;11.752;2023-05-19T06:32:17;96211.63;;;11.85;100.00
71457;BME280;59263;48.160;11.752;2023-05-19T06:34:42;96214.63;;;11.91;100.00
71457;BME280;59263;48.160;11.752;2023-05-19T06:37:08;96202.69;;;12.07;100.00
71457;BME280;59263;48.160;11.752;2023-05-19T06:39:33;96189.69;;;12.17;100.00
71457;BME280;59263;48.160;11.752;2023-05-19T06:41:58;96204.47;;;12.34;100.00
71457;BME280;59263;48.160;11.752;2023-05-19T06:44:24;96193.16;;;12.35;100.00
71457;BME280;59263;48.160;11.752;2023-05-19T06:46:49;96182.09;;;12.33;100.00
71457;BME280;59263;48.160;11.752;2023-05-19T06:49:14;96209.47;;;12.46;100.00
71457;BME280;59263;48.160;11.752;2023-05-19T06:51:40;96200.94;;;12.35;100.00
71457;BME280;59263;48.160;11.752;2023-05-19T06:54:05;96192.88;;;12.39;100.00
71457;BME280;59263;48.160;11.752;2023-05-19T06:56:31;96219.00;;;12.55;100.00
71457;BME280;59263;48.160;11.752;2023-05-19T06:58:56;96176.81;;;12.25;100.00
71457;BME280;59263;48.160;11.752;2023-05-19T07:01:21;96193.69;;;12.39;100.00
71457;BME280;59263;48.160;11.752;2023-05-19T07:03:47;96195.59;;;12.37;100.00
71457;BME280;59263;48.160;11.752;2023-05-19T07:06:12;96194.78;;;12.37;100.00
71457;BME280;59263;48.160;11.752;2023-05-19T07:08:37;96207.06;;;12.34;100.00
71457;BME280;59263;48.160;11.752;2023-05-19T07:11:03;96209.47;;;12.73;100.00
71457;BME280;59263;48.160;11.752;2023-05-19T07:13:29;96183.34;;;12.75;100.00
71457;BME280;59263;48.160;11.752;2023-05-19T07:15:54;96195.00;;;12.89;100.00
71457;BME280;59263;48.160;11.752;2023-05-19T07:18:20;96176.00;;;12.88;100.00
71457;BME280;59263;48.160;11.752;2023-05-19T07:20:46;96154.19;;;12.81;100.00
71457;BME280;59263;48.160;11.752;2023-05-19T07:23:11;96201.38;;;13.12;100.00
71457;BME280;59263;48.160;11.752;2023-05-19T07:25:36;96172.59;;;12.88;100.00
71457;BME280;59263;48.160;11.752;2023-05-19T07:28:02;96189.50;;;12.92;100.00
71457;BME280;59263;48.160;11.752;2023-05-19T07:30:27;96199.31;;;12.98;100.00
71457;BME280;59263;48.160;11.752;2023-05-19T07:32:53;96186.75;;;12.93;100.00
71457;BME280;59263;48.160;11.752;2023-05-19T07:35:19;96202.41;;;13.01;100.00
71457;BME280;59263;48.160;11.752;2023-05-19T07:37:44;96210.81;;;12.95;100.00
71457;BME280;59263;48.160;11.752;2023-05-19T07:40:10;96185.34;;;12.81;100.00
71457;BME280;59263;48.160;11.752;2023-05-19T07:42:35;96187.13;;;12.80;100.00
71457;BME280;59263;48.160;11.752;2023-05-19T07:45:01;96203.66;;;12.97;100.00
71457;BME280;59263;48.160;11.752;2023-05-19T07:47:28;96182.53;;;12.74;100.00
71457;BME280;59263;48.160;11.752;2023-05-19T07:49:53;96163.16;;;12.51;100.00
71457;BME280;59263;48.160;11.752;2023-05-19T07:52:19;96195.13;;;12.69;100.00
71457;BME280;59263;48.160;11.752;2023-05-19T07:54:44;96184.00;;;12.59;100.00
71457;BME280;59263;48.160;11.752;2023-05-19T07:57:10;96195.75;;;12.81;100.00
71457;BME280;59263;48.160;11.752;2023-05-19T07:59:35;96175.09;;;12.97;100.00
71457;BME280;59263;48.160;11.752;2023-05-19T08:02:01;96185.88;;;13.20;100.00
71457;BME280;59263;48.160;11.752;2023-05-19T08:04:26;96178.38;;;13.17;100.00
71457;BME280;59263;48.160;11.752;2023-05-19T08:06:51;96183.56;;;13.17;100.00
71457;BME280;59263;48.160;11.752;2023-05-19T08:09:17;96182.81;;;13.07;100.00
71457;BME280;59263;48.160;11.752;2023-05-19T08:11:42;96196.84;;;13.14;100.00
71457;BME280;59263;48.160;11.752;2023-05-19T08:14:08;96204.13;;;13.11;100.00
71457;BME280;59263;48.160;11.752;2023-05-19T08:16:34;96165.75;;;12.87;100.00
71457;BME280;59263;48.160;11.752;2023-05-19T08:19:00;96204.50;;;13.16;100.00
71457;BME280;59263;48.160;11.752;2023-05-19T08:21:28;96197.22;;;13.01;100.00
71457;BME280;59263;48.160;11.752;2023-05-19T08:23:53;96196.03;;;12.96;100.00
71457;BME280;59263;48.160;11.752;2023-05-19T08:26:19;96169.94;;;12.79;100.00
71457;BME280;59263;48.160;11.752;2023-05-19T08:28:45;96186.09;;;12.73;100.00
71457;BME280;59263;48.160;11.752;2023-05-19T08:31:10;96176.34;;;12.57;100.00
71457;BME280;59263;48.160;11.752;2023-05-19T08:33:36;96191.56;;;12.70;100.00
71457;BME280;59263;48.160;11.752;2023-05-19T08:36:01;96187.56;;;12.58;100.00
71457;BME280;59263;48.160;11.752;2023-05-19T08:38:26;96182.06;;;12.61;100.00
71457;BME280;59263;48.160;11.752;2023-05-19T08:40:52;96189.19;;;12.59;100.00
71457;BME280;59263;48.160;11.752;2023-05-19T08:43:17;96197.81;;;12.77;100.00
71457;BME280;59263;48.160;11.752;2023-05-19T08:45:44;96200.34;;;12.69;100.00
71457;BME280;59263;48.160;11.752;2023-05-19T08:48:12;96183.69;;;12.62;100.00
71457;BME280;59263;48.160;11.752;2023-05-19T08:50:39;96195.72;;;12.63;100.00
71457;BME280;59263;48.160;11.752;2023-05-19T08:53:19;96198.75;;;12.58;100.00
71457;BME280;59263;48.160;11.752;2023-05-19T08:56:07;96175.94;;;12.34;100.00
71457;BME280;59263;48.160;11.752;2023-05-19T08:58:37;96140.72;;;12.04;100.00
71457;BME280;59263;48.160;11.752;2023-05-19T09:01:03;96193.44;;;12.32;100.00
71457;BME280;59263;48.160;11.752;2023-05-19T09:03:31;96139.81;;;11.96;100.00
71457;BME280;59263;48.160;11.752;2023-05-19T09:06:04;96197.56;;;12.25;100.00
71457;BME280;59263;48.160;11.752;2023-05-19T09:08:29;96201.66;;;12.28;100.00
71457;BME280;59263;48.160;11.752;2023-05-19T09:10:55;96182.03;;;12.16;100.00
71457;BME280;59263;48.160;11.752;2023-05-19T09:13:20;96184.50;;;12.17;100.00
71457;BME280;59263;48.160;11.752;2023-05-19T09:15:45;96200.31;;;12.24;100.00
71457;BME280;59263;48.160;11.752;2023-05-19T09:18:13;96190.31;;;12.29;100.00
71457;BME280;59263;48.160;11.752;2023-05-19T09:20:40;96187.69;;;12.39;100.00
71457;BME280;59263;48.160;11.752;2023-05-19T09:23:06;96197.41;;;12.54;100.00
71457;BME280;59263;48.160;11.752;2023-05-19T09:25:33;96170.16;;;12.41;100.00
71457;BME280;59263;48.160;11.752;2023-05-19T09:27:59;96168.91;;;12.45;100.00
71457;BME280;59263;48.160;11.752;2023-05-19T09:30:24;96167.94;;;12.46;100.00
71457;BME280;59263;48.160;11.752;2023-05-19T09:32:50;96190.75;;;12.70;100.00
71457;BME280;59263;48.160;11.752;2023-05-19T09:35:15;96194.41;;;12.77;100.00
71457;BME280;59263;48.160;11.752;2023-05-19T09:37:42;96192.63;;;12.77;100.00
71457;BME280;59263;48.160;11.752;2023-05-19T09:40:08;96172.00;;;12.76;100.00
71457;BME280;59263;48.160;11.752;2023-05-19T09:42:37;96138.44;;;12.47;100.00
71457;BME280;59263;48.160;11.752;2023-05-19T09:45:03;96173.22;;;12.72;100.00
71457;BME280;59263;48.160;11.752;2023-05-19T09:47:35;96178.59;;;12.70;100.00
71457;BME280;59263;48.160;11.752;2023-05-19T09:50:04;96156.63;;;12.65;100.00
71457;BME280;59263;48.160;11.752;2023-05-19T09:52:29;96141.28;;;12.53;100.00
71457;BME280;59263;48.160;11.752;2023-05-19T09:54:55;96178.88;;;12.67;100.00
71457;BME280;59263;48.160;11.752;2023-05-19T09:57:25;96176.50;;;12.56;100.00
71457;BME280;59263;48.160;11.752;2023-05-19T09:59:53;96183.63;;;12.54;100.00
71457;BME280;59263;48.160;11.752;2023-05-19T10:02:21;96164.84;;;12.42;100.00
71457;BME280;59263;48.160;11.752;2023-05-19T10:04:51;96181.59;;;12.48;100.00
71457;BME280;59263;48.160;11.752;2023-05-19T10:07:18;96163.47;;;12.38;100.00
71457;BME280;59263;48.160;11.752;2023-05-19T10:09:43;96180.75;;;12.57;100.00
71457;BME280;59263;48.160;11.752;2023-05-19T10:12:10;96169.84;;;12.53;100.00
71457;BME280;59263;48.160;11.752;2023-05-19T10:14:36;96166.78;;;12.58;100.00
71457;BME280;59263;48.160;11.752;2023-05-19T10:17:02;96185.31;;;12.63;100.00
71457;BME280;59263;48.160;11.752;2023-05-19T10:19:28;96176.28;;;12.67;100.00
71457;BME280;59263;48.160;11.752;2023-05-19T10:21:53;96146.78;;;12.68;100.00
71457;BME280;59263;48.160;11.752;2023-05-19T10:24:19;96181.13;;;12.80;100.00
71457;BME280;59263;48.160;11.752;2023-05-19T10:26:53;96179.78;;;12.76;100.00
71457;BME280;59263;48.160;11.752;2023-05-19T10:29:26;96182.53;;;12.74;100.00
71457;BME280;59263;48.160;11.752;2023-05-19T10:31:54;96169.75;;;12.63;100.00
71457;BME280;59263;48.160;11.752;2023-05-19T10:34:43;96177.97;;;12.58;100.00
71457;BME280;59263;48.160;11.752;2023-05-19T10:40:23;96174.28;;;12.61;100.00
71457;BME280;59263;48.160;11.752;2023-05-19T10:45:56;96159.06;;;12.66;100.00
71457;BME280;59263;48.160;11.752;2023-05-19T10:48:22;96143.56;;;12.56;100.00
71457;BME280;59263;48.160;11.752;2023-05-19T10:50:52;96163.97;;;12.69;100.00
71457;BME280;59263;48.160;11.752;2023-05-19T10:53:18;96167.97;;;12.81;100.00
71457;BME280;59263;48.160;11.752;2023-05-19T10:55:49;96166.50;;;12.97;100.00
71457;BME280;59263;48.160;11.752;2023-05-19T10:58:38;96175.31;;;13.04;100.00
71457;BME280;59263;48.160;11.752;2023-05-19T11:01:21;96172.44;;;13.07;100.00
71457;BME280;59263;48.160;11.752;2023-05-19T11:03:54;96166.78;;;13.12;100.00
71457;BME280;59263;48.160;11.752;2023-05-19T11:06:28;96154.94;;;13.09;100.00
71457;BME280;59263;48.160;11.752;2023-05-19T11:08:59;96164.28;;;13.02;100.00
71457;BME280;59263;48.160;11.752;2023-05-19T11:11:43;96152.16;;;12.75;100.00
71457;BME280;59263;48.160;11.752;2023-05-19T11:14:09;96171.84;;;12.77;100.00
71457;BME280;59263;48.160;11.752;2023-05-19T11:16:35;96160.41;;;12.70;100.00
71457;BME280;59263;48.160;11.752;2023-05-19T11:19:01;96156.84;;;12.71;100.00
71457;BME280;59263;48.160;11.752;2023-05-19T11:21:48;96171.84;;;12.77;100.00
71457;BME280;59263;48.160;11.752;2023-05-19T11:24:42;96168.28;;;12.78;100.00
71457;BME280;59263;48.160;11.752;2023-05-19T11:27:28;96171.25;;;12.83;100.00
71457;BME280;59263;48.160;11.752;2023-05-19T11:29:57;96167.16;;;12.81;100.00
71457;BME280;59263;48.160;11.752;2023-05-19T11:32:30;96164.66;;;12.89;100.00
71457;BME280;59263;48.160;11.752;2023-05-19T11:34:58;96169.59;;;12.82;100.00
71457;BME280;59263;48.160;11.752;2023-05-19T11:37:24;96161.69;;;12.84;100.00
71457;BME280;59263;48.160;11.752;2023-05-19T11:39:50;96154.13;;;12.91;100.00
71457;BME280;59263;48.160;11.752;2023-05-19T11:42:16;96145.34;;;12.92;100.00
71457;BME280;59263;48.160;11.752;2023-05-19T11:44:43;96167.53;;;13.04;100.00
71457;BME280;59263;48.160;11.752;2023-05-19T11:47:13;96159.44;;;13.07;100.00
71457;BME280;59263;48.160;11.752;2023-05-19T11:49:49;96161.75;;;13.10;100.00
71457;BME280;59263;48.160;11.752;2023-05-19T11:52:16;96159.38;;;12.99;100.00
71457;BME280;59263;48.160;11.752;2023-05-19T11:54:41;96162.28;;;12.96;100.00
71457;BME280;59263;48.160;11.752;2023-05-19T11:57:08;96163.53;;;12.92;100.00
71457;BME280;59263;48.160;11.752;2023-05-19T11:59:36;96170.00;;;12.88;100.00
71457;BME280;59263;48.160;11.752;2023-05-19T12:02:21;96176.97;;;12.87;100.00
71457;BME280;59263;48.160;11.752;2023-05-19T12:04:47;96167.47;;;12.78;100.00
71457;BME280;59263;48.160;11.752;2023-05-19T12:07:19;96164.28;;;12.84;100.00
71457;BME280;59263;48.160;11.752;2023-05-19T12:09:47;96166.25;;;12.90;100.00
71457;BME280;59263;48.160;11.752;2023-05-19T12:12:14;96158.06;;;12.95;100.00
71457;BME280;59263;48.160;11.752;2023-05-19T12:14:41;96149.69;;;12.83;100.00
71457;BME280;59263;48.160;11.752;2023-05-19T12:17:17;96149.16;;;12.79;100.00
71457;BME280;59263;48.160;11.752;2023-05-19T12:19:44;96165.75;;;12.87;100.00
71457;BME280;59263;48.160;11.752;2023-05-19T12:22:10;96162.78;;;12.81;100.00
71457;BME280;59263;48.160;11.752;2023-05-19T12:24:37;96168.34;;;12.87;100.00
71457;BME280;59263;48.160;11.752;2023-05-19T12:27:09;96161.59;;;12.94;100.00
71457;BME280;59263;48.160;11.752;2023-05-19T12:29:38;96165.53;;;12.80;100.00
71457;BME280;59263;48.160;11.752;2023-05-19T12:32:05;96169.94;;;12.79;100.00
71457;BME280;59263;48.160;11.752;2023-05-19T12:34:36;96159.59;;;12.70;100.00
71457;BME280;59263;48.160;11.752;2023-05-19T12:37:02;96141.47;;;12.60;100.00
71457;BME280;59263;48.160;11.752;2023-05-19T12:39:28;96150.31;;;12.67;100.00
71457;BME280;59263;48.160;11.752;2023-05-19T12:42:02;96153.53;;;12.61;100.00
71457;BME280;59263;48.160;11.752;2023-05-19T12:44:27;96143.03;;;12.53;100.00
71457;BME280;59263;48.160;11.752;2023-05-19T12:46:57;96135.88;;;12.65;100.00
71457;BME280;59263;48.160;11.752;2023-05-19T12:49:23;96151.34;;;12.74;100.00
71457;BME280;59263;48.160;11.752;2023-05-19T12:51:52;96145.34;;;12.74;100.00
71457;BME280;59263;48.160;11.752;2023-05-19T12:54:19;96150.38;;;12.93;100.00
71457;BME280;59263;48.160;11.752;2023-05-19T12:56:49;96154.19;;;12.99;100.00
71457;BME280;59263;48.160;11.752;2023-05-19T12:59:22;96125.56;;;12.91;100.00